Terminal Aerodrome Forecast
Issued by NWS

Current Version | Previous Version | Text Only | Print | Product List | Glossary On
Versions: 1 2 3 4 5 6 7 8 9 10 11 12 13 14
000
FTUS42 KMLB 301140
TAFTIX
TAF
KTIX 301140Z 3012/0112 21003KT P6SM FEW025 BKN250
     FM301500 28007KT P6SM VCSH SCT025 BKN080 BKN200
     FM010300 22003KT P6SM VCSH FEW020 BKN250=

USA.gov is the U.S. government's official web portal to all federal, state and local government web resources and services.